F/V Atalante 3 — FHUX — position and weather

sailwx.info

Track history (hours):
 
Tides and Currents Weather Stations Pressure Air Temp Water Temp Dewpoint Dewpoint Depression Visibility Wind Speed Wind Dir Waves Ship Positions

F/V Atalante 3

Last reported at 2017-Sep-21 22:44 UTC. Time now 2017-Sep-22 02:39 UTC.
Position N 45°00' W 001°17'.

Type: Other ship. MMSI: 228211000.

Date/timePositionNaut miles runAvg speedWind from/ knotsBaromVisibWave heightAir tempDewpointWater temp
2017-Sep-21 22:44N 45°00' W 001°17'0 0.0
2017-Sep-21 22:27N 45°00' W 001°17'0 0.1
2017-Sep-21 21:59N 45°00' W 001°17'0 0.1
2017-Sep-21 21:22N 45°00' W 001°17'0 0.0
2017-Sep-21 20:42N 45°00' W 001°17'0 0.0
2017-Sep-21 20:14N 45°00' W 001°17'0 0.0
2017-Sep-21 19:58N 45°00' W 001°17'0 0.0
2017-Sep-21 18:15N 45°00' W 001°17'0 0.0
2017-Sep-21 17:59N 45°00' W 001°17'0 0.0
2017-Sep-21 17:30N 45°00' W 001°17'0 0.0
2017-Sep-21 16:54N 45°00' W 001°17'0 0.0
2017-Sep-21 16:13N 45°00' W 001°17'0 0.0
2017-Sep-21 15:57N 45°00' W 001°17'0 0.0
2017-Sep-21 15:30N 45°00' W 001°17'0 0.0
2017-Sep-21 14:40N 45°00' W 001°17'0 0.0
2017-Sep-21 14:30N 45°00' W 001°17'1 1.1
2017-Sep-21 14:00N 45°01' W 001°16'1 2.3
2017-Sep-21 13:30N 45°02' W 001°16'1 3.0
2017-Sep-21 13:00N 45°03' W 001°16'2 3.8
2017-Sep-21 12:30N 45°01' W 001°16'1 1.7
2017-Sep-21 11:58N 45°01' W 001°16'4 8.8
2017-Sep-21 11:28N 44°56' W 001°17'4 9.1
2017-Sep-21 11:00N 44°52' W 001°18'4 6.8
2017-Sep-21 10:29N 44°49' W 001°19'1 2.6
2017-Sep-21 10:00N 44°47' W 001°19'1 2.5
2017-Sep-21 09:30N 44°46' W 001°19'1 2.3
2017-Sep-21 09:00N 44°45' W 001°20'1 2.5
2017-Sep-21 08:30N 44°46' W 001°20'1 2.7
2017-Sep-21 08:00N 44°48' W 001°19'0 0.9
2017-Sep-21 07:30N 44°48' W 001°20'1 2.5
2017-Sep-21 07:00N 44°47' W 001°20'1 2.6
2017-Sep-21 06:30N 44°46' W 001°20'0 0.8
2017-Sep-21 06:00N 44°45' W 001°20'1 2.6
2017-Sep-21 05:30N 44°46' W 001°20'1 1.6
2017-Sep-21 05:00N 44°46' W 001°21'1 2.2
2017-Sep-21 04:30N 44°45' W 001°21'0 0.0
2017-Sep-21 04:00N 44°45' W 001°21'0 0.0
2017-Sep-21 03:30N 44°45' W 001°21'0 0.1
2017-Sep-21 03:00N 44°45' W 001°21'0 0.0
2017-Sep-21 02:30N 44°45' W 001°21'0 0.1
2017-Sep-21 02:00N 44°45' W 001°21'0 0.1
2017-Sep-21 01:30N 44°45' W 001°21'0 0.1
2017-Sep-21 01:00N 44°45' W 001°20'0 0.1
2017-Sep-21 00:30N 44°45' W 001°20'0 0.0
2017-Sep-21 00:01N 44°45' W 001°20'0 0.1
2017-Sep-20 23:30N 44°45' W 001°20'0 0.2
2017-Sep-20 23:00N 44°45' W 001°21'0 0.1
2017-Sep-20 22:30N 44°45' W 001°21'0 0.0
2017-Sep-20 22:00N 44°45' W 001°21'0 0.0
2017-Sep-20 21:30N 44°45' W 001°21'0 0.1
2017-Sep-20 21:00N 44°45' W 001°21'0 0.0
2017-Sep-20 20:30N 44°45' W 001°21'0 0.0
2017-Sep-20 20:01N 44°45' W 001°21'0 0.0
2017-Sep-20 19:31N 44°45' W 001°21'0 0.0
2017-Sep-20 19:00N 44°45' W 001°21'0 0.1
2017-Sep-20 18:30N 44°45' W 001°21'0 0.0
2017-Sep-20 18:00N 44°45' W 001°21'0 0.0
2017-Sep-20 17:30N 44°45' W 001°21'0 0.0
2017-Sep-20 17:00N 44°45' W 001°21'0 0.0
2017-Sep-20 16:30N 44°45' W 001°21'0 0.0
2017-Sep-20 16:00N 44°45' W 001°21'0 0.0
2017-Sep-20 15:30N 44°45' W 001°21'0 0.0
2017-Sep-20 15:01N 44°45' W 001°21'0 0.1
2017-Sep-20 14:01N 44°45' W 001°21'1 1.5
2017-Sep-20 13:31N 44°45' W 001°21'1 1.0
2017-Sep-20 13:00N 44°45' W 001°20'3 6.6
2017-Sep-20 12:30N 44°48' W 001°19'3 5.6
2017-Sep-20 12:01N 44°45' W 001°19'4 6.6
2017-Sep-20 11:29N 44°49' W 001°19'4 8.5
2017-Sep-20 11:00N 44°48' W 001°25'1 2.7
2017-Sep-20 10:30N 44°47' W 001°25'1 2.6
2017-Sep-20 10:00N 44°45' W 001°25'0 0.9
2017-Sep-20 09:30N 44°45' W 001°26'1 2.3
2017-Sep-20 09:01N 44°46' W 001°26'1 2.3
2017-Sep-20 08:30N 44°47' W 001°26'1 2.1
2017-Sep-20 08:01N 44°46' W 001°26'1 1.9
2017-Sep-20 07:30N 44°45' W 001°26'1 1.5
2017-Sep-20 07:00N 44°45' W 001°26'1 2.6
2017-Sep-20 06:30N 44°46' W 001°26'1 2.5
2017-Sep-20 06:00N 44°47' W 001°26'1 2.0
2017-Sep-20 05:30N 44°46' W 001°27'1 2.5
2017-Sep-20 05:00N 44°45' W 001°27'1 1.5
2017-Sep-20 04:30N 44°44' W 001°26'0 0.0
2017-Sep-20 04:00N 44°44' W 001°26'0 0.0
2017-Sep-20 03:30N 44°44' W 001°26'0 0.0
2017-Sep-20 03:00N 44°44' W 001°26'0 0.0
2017-Sep-20 02:30N 44°44' W 001°26'0 0.0
2017-Sep-20 02:00N 44°44' W 001°26'0 0.1
2017-Sep-20 01:30N 44°44' W 001°26'0 0.1
2017-Sep-20 01:00N 44°44' W 001°26'0 0.1
2017-Sep-20 00:30N 44°44' W 001°26'0 0.1
2017-Sep-20 00:00N 44°44' W 001°26'0 0.2
2017-Sep-19 23:30N 44°44' W 001°26'0 0.0
2017-Sep-19 23:00N 44°44' W 001°26'0 0.0
2017-Sep-19 22:30N 44°44' W 001°26'0 0.0
2017-Sep-19 22:00N 44°44' W 001°26'0 0.0
2017-Sep-19 21:30N 44°44' W 001°26'0 0.1
2017-Sep-19 21:00N 44°44' W 001°26'0 0.1
2017-Sep-19 20:30N 44°44' W 001°26'0 0.1
2017-Sep-19 20:00N 44°44' W 001°26'0 0.1
2017-Sep-19 19:30N 44°44' W 001°26'0 0.0
2017-Sep-19 19:00N 44°44' W 001°26'0 0.1
2017-Sep-19 18:06N 44°44' W 001°26'0 0.3
2017-Sep-19 18:00N 44°44' W 001°26'3 5.4
2017-Sep-19 17:30N 44°47' W 001°27'2 4.5
2017-Sep-19 17:00N 44°45' W 001°26'2 4.2
2017-Sep-19 16:30N 44°47' W 001°26'1 1.5
2017-Sep-19 16:00N 44°46' W 001°25'0 0.8
2017-Sep-19 15:30N 44°46' W 001°26'4 7.9
2017-Sep-19 15:01N 44°42' W 001°25'4 7.9
2017-Sep-19 14:31N 44°38' W 001°22'4 7.7
2017-Sep-19 14:00N 44°35' W 001°19'3 5.8
2017-Sep-19 13:30N 44°35' W 001°15'3 5.6
2017-Sep-19 13:00N 44°38' W 001°14'3 6.4
2017-Sep-19 12:30N 44°40' W 001°11'2 3.8
2017-Sep-19 12:00N 44°39' W 001°09'0 0.0
2017-Sep-19 11:30N 44°39' W 001°09'0 0.0
2017-Sep-19 11:00N 44°39' W 001°09'0 0.0
2017-Sep-19 10:30N 44°40' W 001°09'0 0.0
2017-Sep-19 10:00N 44°39' W 001°09'0 0.0
2017-Sep-19 09:30N 44°39' W 001°09'0 0.0
2017-Sep-19 09:00N 44°39' W 001°09'0 0.0
2017-Sep-19 08:30N 44°39' W 001°09'  
2017-Sep-16 13:50N 44°39' W 001°09'0 0.2
2017-Sep-16 13:30N 44°39' W 001°09'0 0.0
2017-Sep-16 13:00N 44°39' W 001°09'3 6.2
2017-Sep-16 12:30N 44°39' W 001°13'5 9.3
2017-Sep-16 12:00N 44°35' W 001°15'3 5.2
2017-Sep-16 11:30N 44°37' W 001°18'4 8.6
2017-Sep-16 11:00N 44°41' W 001°18'4 8.4
2017-Sep-16 10:30N 44°45' W 001°18'4 8.3
2017-Sep-16 10:00N 44°49' W 001°18'4 8.2
2017-Sep-16 09:30N 44°53' W 001°17'  
2017-Sep-13 09:49N 44°54' W 001°22'3 8.9
2017-Sep-13 09:30N 44°52' W 001°21'5 8.9
2017-Sep-13 09:00N 44°47' W 001°20'4 8.9
2017-Sep-13 08:30N 44°43' W 001°20'4 9.0
2017-Sep-13 08:00N 44°38' W 001°19'4 8.8
2017-Sep-13 07:30N 44°34' W 001°18'3 6.2
2017-Sep-13 07:00N 44°36' W 001°14'3 7.0
2017-Sep-13 06:30N 44°39' W 001°13'3 5.9
2017-Sep-13 06:00N 44°40' W 001°09'0 0.2
2017-Sep-13 05:30N 44°39' W 001°09'0 0.0
2017-Sep-13 05:00N 44°39' W 001°09'0 0.0
2017-Sep-13 04:30N 44°39' W 001°09'0 0.0
2017-Sep-13 04:00N 44°39' W 001°09'0 0.0
2017-Sep-13 03:30N 44°39' W 001°09'0 0.0
2017-Sep-13 03:00N 44°39' W 001°09'0 0.0
2017-Sep-13 02:30N 44°39' W 001°09'0 0.0
2017-Sep-13 02:00N 44°39' W 001°09'0 0.0
2017-Sep-13 01:30N 44°39' W 001°09'0 0.0
2017-Sep-13 01:00N 44°39' W 001°09'0 0.0
2017-Sep-13 00:30N 44°39' W 001°09'0 0.0
2017-Sep-13 00:00N 44°39' W 001°09'0 0.0
2017-Sep-12 23:30N 44°39' W 001°09'0 0.0
2017-Sep-12 23:00N 44°39' W 001°09'0 0.0
2017-Sep-12 22:30N 44°39' W 001°09'0 0.0
2017-Sep-12 22:00N 44°39' W 001°09'0 0.0
2017-Sep-12 21:30N 44°39' W 001°09'0 0.0
2017-Sep-12 21:00N 44°39' W 001°09'0 0.0
2017-Sep-12 20:30N 44°39' W 001°09'0 0.0
2017-Sep-12 20:00N 44°39' W 001°09'0 0.0
2017-Sep-12 19:30N 44°39' W 001°09'0 0.0
2017-Sep-12 19:00N 44°39' W 001°09'0 0.0
2017-Sep-12 18:31N 44°39' W 001°09'3 6.6
2017-Sep-12 18:00N 44°39' W 001°13'510.3
2017-Sep-12 17:30N 44°34' W 001°16'4 7.1
2017-Sep-12 17:00N 44°37' W 001°19'4 8.3
2017-Sep-12 16:30N 44°41' W 001°20'4 8.3
2017-Sep-12 16:00N 44°45' W 001°20'4 8.3
2017-Sep-12 15:30N 44°50' W 001°21'4 8.3
2017-Sep-12 15:00N 44°54' W 001°22'4 2.0
2017-Sep-12 13:16N 44°57' W 001°23'0 0.9
2017-Sep-12 13:00N 44°57' W 001°23'0 0.1
2017-Sep-12 08:50N 44°58' W 001°23'  
Track history (hours):
 
Tides and Currents Weather Stations Pressure Air Temp Water Temp Dewpoint Dewpoint Depression Visibility Wind Speed Wind Dir Waves Ship Positions

F/V Atalante 3

Last reported at 2017-Sep-21 22:44 UTC. Time now 2017-Sep-22 02:39 UTC.
Position N 45°00' W 001°17'.

Type: Other ship. MMSI: 228211000.

Date/timePositionNaut miles runAvg speedWind from/ knotsBaromVisibWave heightAir tempDewpointWater temp
2017-Sep-21 22:44N 45°00' W 001°17'0 0.0
2017-Sep-21 22:27N 45°00' W 001°17'0 0.1
2017-Sep-21 21:59N 45°00' W 001°17'0 0.1
2017-Sep-21 21:22N 45°00' W 001°17'0 0.0
2017-Sep-21 20:42N 45°00' W 001°17'0 0.0
2017-Sep-21 20:14N 45°00' W 001°17'0 0.0
2017-Sep-21 19:58N 45°00' W 001°17'0 0.0
2017-Sep-21 18:15N 45°00' W 001°17'0 0.0
2017-Sep-21 17:59N 45°00' W 001°17'0 0.0
2017-Sep-21 17:30N 45°00' W 001°17'0 0.0
2017-Sep-21 16:54N 45°00' W 001°17'0 0.0
2017-Sep-21 16:13N 45°00' W 001°17'0 0.0
2017-Sep-21 15:57N 45°00' W 001°17'0 0.0
2017-Sep-21 15:30N 45°00' W 001°17'0 0.0
2017-Sep-21 14:40N 45°00' W 001°17'0 0.0
2017-Sep-21 14:30N 45°00' W 001°17'1 1.1
2017-Sep-21 14:00N 45°01' W 001°16'1 2.3
2017-Sep-21 13:30N 45°02' W 001°16'1 3.0
2017-Sep-21 13:00N 45°03' W 001°16'2 3.8
2017-Sep-21 12:30N 45°01' W 001°16'1 1.7
2017-Sep-21 11:58N 45°01' W 001°16'4 8.8
2017-Sep-21 11:28N 44°56' W 001°17'4 9.1
2017-Sep-21 11:00N 44°52' W 001°18'4 6.8
2017-Sep-21 10:29N 44°49' W 001°19'1 2.6
2017-Sep-21 10:00N 44°47' W 001°19'1 2.5
2017-Sep-21 09:30N 44°46' W 001°19'1 2.3
2017-Sep-21 09:00N 44°45' W 001°20'1 2.5
2017-Sep-21 08:30N 44°46' W 001°20'1 2.7
2017-Sep-21 08:00N 44°48' W 001°19'0 0.9
2017-Sep-21 07:30N 44°48' W 001°20'1 2.5
2017-Sep-21 07:00N 44°47' W 001°20'1 2.6
2017-Sep-21 06:30N 44°46' W 001°20'0 0.8
2017-Sep-21 06:00N 44°45' W 001°20'1 2.6
2017-Sep-21 05:30N 44°46' W 001°20'1 1.6
2017-Sep-21 05:00N 44°46' W 001°21'1 2.2
2017-Sep-21 04:30N 44°45' W 001°21'0 0.0
2017-Sep-21 04:00N 44°45' W 001°21'0 0.0
2017-Sep-21 03:30N 44°45' W 001°21'0 0.1
2017-Sep-21 03:00N 44°45' W 001°21'0 0.0
2017-Sep-21 02:30N 44°45' W 001°21'0 0.1
2017-Sep-21 02:00N 44°45' W 001°21'0 0.1
2017-Sep-21 01:30N 44°45' W 001°21'0 0.1
2017-Sep-21 01:00N 44°45' W 001°20'0 0.1
2017-Sep-21 00:30N 44°45' W 001°20'0 0.0
2017-Sep-21 00:01N 44°45' W 001°20'0 0.1
2017-Sep-20 23:30N 44°45' W 001°20'0 0.2
2017-Sep-20 23:00N 44°45' W 001°21'0 0.1
2017-Sep-20 22:30N 44°45' W 001°21'0 0.0
2017-Sep-20 22:00N 44°45' W 001°21'0 0.0
2017-Sep-20 21:30N 44°45' W 001°21'0 0.1
2017-Sep-20 21:00N 44°45' W 001°21'0 0.0
2017-Sep-20 20:30N 44°45' W 001°21'0 0.0
2017-Sep-20 20:01N 44°45' W 001°21'0 0.0
2017-Sep-20 19:31N 44°45' W 001°21'0 0.0
2017-Sep-20 19:00N 44°45' W 001°21'0 0.1
2017-Sep-20 18:30N 44°45' W 001°21'0 0.0
2017-Sep-20 18:00N 44°45' W 001°21'0 0.0
2017-Sep-20 17:30N 44°45' W 001°21'0 0.0
2017-Sep-20 17:00N 44°45' W 001°21'0 0.0
2017-Sep-20 16:30N 44°45' W 001°21'0 0.0
2017-Sep-20 16:00N 44°45' W 001°21'0 0.0
2017-Sep-20 15:30N 44°45' W 001°21'0 0.0
2017-Sep-20 15:01N 44°45' W 001°21'0 0.1
2017-Sep-20 14:01N 44°45' W 001°21'1 1.5
2017-Sep-20 13:31N 44°45' W 001°21'1 1.0
2017-Sep-20 13:00N 44°45' W 001°20'3 6.6
2017-Sep-20 12:30N 44°48' W 001°19'3 5.6
2017-Sep-20 12:01N 44°45' W 001°19'4 6.6
2017-Sep-20 11:29N 44°49' W 001°19'4 8.5
2017-Sep-20 11:00N 44°48' W 001°25'1 2.7
2017-Sep-20 10:30N 44°47' W 001°25'1 2.6
2017-Sep-20 10:00N 44°45' W 001°25'0 0.9
2017-Sep-20 09:30N 44°45' W 001°26'1 2.3
2017-Sep-20 09:01N 44°46' W 001°26'1 2.3
2017-Sep-20 08:30N 44°47' W 001°26'1 2.1
2017-Sep-20 08:01N 44°46' W 001°26'1 1.9
2017-Sep-20 07:30N 44°45' W 001°26'1 1.5
2017-Sep-20 07:00N 44°45' W 001°26'1 2.6
2017-Sep-20 06:30N 44°46' W 001°26'1 2.5
2017-Sep-20 06:00N 44°47' W 001°26'1 2.0
2017-Sep-20 05:30N 44°46' W 001°27'1 2.5
2017-Sep-20 05:00N 44°45' W 001°27'1 1.5
2017-Sep-20 04:30N 44°44' W 001°26'0 0.0
2017-Sep-20 04:00N 44°44' W 001°26'0 0.0
2017-Sep-20 03:30N 44°44' W 001°26'0 0.0
2017-Sep-20 03:00N 44°44' W 001°26'0 0.0
2017-Sep-20 02:30N 44°44' W 001°26'0 0.0
2017-Sep-20 02:00N 44°44' W 001°26'0 0.1
2017-Sep-20 01:30N 44°44' W 001°26'0 0.1
2017-Sep-20 01:00N 44°44' W 001°26'0 0.1
2017-Sep-20 00:30N 44°44' W 001°26'0 0.1
2017-Sep-20 00:00N 44°44' W 001°26'0 0.2
2017-Sep-19 23:30N 44°44' W 001°26'0 0.0
2017-Sep-19 23:00N 44°44' W 001°26'0 0.0
2017-Sep-19 22:30N 44°44' W 001°26'0 0.0
2017-Sep-19 22:00N 44°44' W 001°26'0 0.0
2017-Sep-19 21:30N 44°44' W 001°26'0 0.1
2017-Sep-19 21:00N 44°44' W 001°26'0 0.1
2017-Sep-19 20:30N 44°44' W 001°26'0 0.1
2017-Sep-19 20:00N 44°44' W 001°26'0 0.1
2017-Sep-19 19:30N 44°44' W 001°26'0 0.0
2017-Sep-19 19:00N 44°44' W 001°26'0 0.1
2017-Sep-19 18:06N 44°44' W 001°26'0 0.3
2017-Sep-19 18:00N 44°44' W 001°26'3 5.4
2017-Sep-19 17:30N 44°47' W 001°27'2 4.5
2017-Sep-19 17:00N 44°45' W 001°26'2 4.2
2017-Sep-19 16:30N 44°47' W 001°26'1 1.5
2017-Sep-19 16:00N 44°46' W 001°25'0 0.8
2017-Sep-19 15:30N 44°46' W 001°26'4 7.9
2017-Sep-19 15:01N 44°42' W 001°25'4 7.9
2017-Sep-19 14:31N 44°38' W 001°22'4 7.7
2017-Sep-19 14:00N 44°35' W 001°19'3 5.8
2017-Sep-19 13:30N 44°35' W 001°15'3 5.6
2017-Sep-19 13:00N 44°38' W 001°14'3 6.4
2017-Sep-19 12:30N 44°40' W 001°11'2 3.8
2017-Sep-19 12:00N 44°39' W 001°09'0 0.0
2017-Sep-19 11:30N 44°39' W 001°09'0 0.0
2017-Sep-19 11:00N 44°39' W 001°09'0 0.0
2017-Sep-19 10:30N 44°40' W 001°09'0 0.0
2017-Sep-19 10:00N 44°39' W 001°09'0 0.0
2017-Sep-19 09:30N 44°39' W 001°09'0 0.0
2017-Sep-19 09:00N 44°39' W 001°09'0 0.0
2017-Sep-19 08:30N 44°39' W 001°09'  
2017-Sep-16 13:50N 44°39' W 001°09'0 0.2
2017-Sep-16 13:30N 44°39' W 001°09'0 0.0
2017-Sep-16 13:00N 44°39' W 001°09'3 6.2
2017-Sep-16 12:30N 44°39' W 001°13'5 9.3
2017-Sep-16 12:00N 44°35' W 001°15'3 5.2
2017-Sep-16 11:30N 44°37' W 001°18'4 8.6
2017-Sep-16 11:00N 44°41' W 001°18'4 8.4
2017-Sep-16 10:30N 44°45' W 001°18'4 8.3
2017-Sep-16 10:00N 44°49' W 001°18'4 8.2
2017-Sep-16 09:30N 44°53' W 001°17'  
2017-Sep-13 09:49N 44°54' W 001°22'3 8.9
2017-Sep-13 09:30N 44°52' W 001°21'5 8.9
2017-Sep-13 09:00N 44°47' W 001°20'4 8.9
2017-Sep-13 08:30N 44°43' W 001°20'4 9.0
2017-Sep-13 08:00N 44°38' W 001°19'4 8.8
2017-Sep-13 07:30N 44°34' W 001°18'3 6.2
2017-Sep-13 07:00N 44°36' W 001°14'3 7.0
2017-Sep-13 06:30N 44°39' W 001°13'3 5.9
2017-Sep-13 06:00N 44°40' W 001°09'0 0.2
2017-Sep-13 05:30N 44°39' W 001°09'0 0.0
2017-Sep-13 05:00N 44°39' W 001°09'0 0.0
2017-Sep-13 04:30N 44°39' W 001°09'0 0.0
2017-Sep-13 04:00N 44°39' W 001°09'0 0.0
2017-Sep-13 03:30N 44°39' W 001°09'0 0.0
2017-Sep-13 03:00N 44°39' W 001°09'0 0.0
2017-Sep-13 02:30N 44°39' W 001°09'0 0.0
2017-Sep-13 02:00N 44°39' W 001°09'0 0.0
2017-Sep-13 01:30N 44°39' W 001°09'0 0.0
2017-Sep-13 01:00N 44°39' W 001°09'0 0.0
2017-Sep-13 00:30N 44°39' W 001°09'0 0.0
2017-Sep-13 00:00N 44°39' W 001°09'0 0.0
2017-Sep-12 23:30N 44°39' W 001°09'0 0.0
2017-Sep-12 23:00N 44°39' W 001°09'0 0.0
2017-Sep-12 22:30N 44°39' W 001°09'0 0.0
2017-Sep-12 22:00N 44°39' W 001°09'0 0.0
2017-Sep-12 21:30N 44°39' W 001°09'0 0.0
2017-Sep-12 21:00N 44°39' W 001°09'0 0.0
2017-Sep-12 20:30N 44°39' W 001°09'0 0.0
2017-Sep-12 20:00N 44°39' W 001°09'0 0.0
2017-Sep-12 19:30N 44°39' W 001°09'0 0.0
2017-Sep-12 19:00N 44°39' W 001°09'0 0.0
2017-Sep-12 18:31N 44°39' W 001°09'3 6.6
2017-Sep-12 18:00N 44°39' W 001°13'510.3
2017-Sep-12 17:30N 44°34' W 001°16'4 7.1
2017-Sep-12 17:00N 44°37' W 001°19'4 8.3
2017-Sep-12 16:30N 44°41' W 001°20'4 8.3
2017-Sep-12 16:00N 44°45' W 001°20'4 8.3
2017-Sep-12 15:30N 44°50' W 001°21'4 8.3
2017-Sep-12 15:00N 44°54' W 001°22'4 2.0
2017-Sep-12 13:16N 44°57' W 001°23'0 0.9
2017-Sep-12 13:00N 44°57' W 001°23'0 0.1
2017-Sep-12 08:50N 44°58' W 001°23'  

Dump ship's entire track history